sensor_id;sensor_type;location;lat;lon;timestamp;P1;durP1;ratioP1;P2;durP2;ratioP2
12675;SDS011;63820;65.654;21.944;2022-10-31T00:00:19;5.67;;;1.60;;
12675;SDS011;63820;65.654;21.944;2022-10-31T00:03:02;3.70;;;1.47;;
12675;SDS011;63820;65.654;21.944;2022-10-31T00:05:47;5.40;;;1.80;;
12675;SDS011;63820;65.654;21.944;2022-10-31T00:08:32;5.37;;;1.30;;
12675;SDS011;63820;65.654;21.944;2022-10-31T00:11:16;2.13;;;1.13;;
12675;SDS011;63820;65.654;21.944;2022-10-31T00:14:01;6.60;;;1.57;;
12675;SDS011;63820;65.654;21.944;2022-10-31T00:16:45;3.53;;;1.53;;
12675;SDS011;63820;65.654;21.944;2022-10-31T00:19:29;2.77;;;1.30;;
12675;SDS011;63820;65.654;21.944;2022-10-31T00:22:14;3.90;;;1.17;;
12675;SDS011;63820;65.654;21.944;2022-10-31T00:24:58;4.17;;;1.50;;
12675;SDS011;63820;65.654;21.944;2022-10-31T00:27:42;5.43;;;2.00;;
12675;SDS011;63820;65.654;21.944;2022-10-31T00:30:26;3.70;;;1.17;;
12675;SDS011;63820;65.654;21.944;2022-10-31T00:33:10;5.93;;;1.40;;
12675;SDS011;63820;65.654;21.944;2022-10-31T00:35:54;4.50;;;1.27;;
12675;SDS011;63820;65.654;21.944;2022-10-31T00:38:38;2.93;;;1.20;;
12675;SDS011;63820;65.654;21.944;2022-10-31T00:41:23;3.67;;;1.40;;
12675;SDS011;63820;65.654;21.944;2022-10-31T00:44:07;3.13;;;1.37;;
12675;SDS011;63820;65.654;21.944;2022-10-31T00:46:51;3.00;;;1.20;;
12675;SDS011;63820;65.654;21.944;2022-10-31T00:49:35;2.87;;;1.00;;
12675;SDS011;63820;65.654;21.944;2022-10-31T00:52:19;4.33;;;1.20;;
12675;SDS011;63820;65.654;21.944;2022-10-31T00:55:03;2.83;;;1.00;;
12675;SDS011;63820;65.654;21.944;2022-10-31T00:57:47;2.57;;;1.13;;
12675;SDS011;63820;65.654;21.944;2022-10-31T01:00:31;2.10;;;1.10;;
12675;SDS011;63820;65.654;21.944;2022-10-31T01:03:15;3.40;;;1.30;;
12675;SDS011;63820;65.654;21.944;2022-10-31T01:06:00;1.77;;;1.00;;
12675;SDS011;63820;65.654;21.944;2022-10-31T01:08:47;4.50;;;1.20;;
12675;SDS011;63820;65.654;21.944;2022-10-31T01:11:32;3.67;;;1.20;;
12675;SDS011;63820;65.654;21.944;2022-10-31T01:14:16;4.03;;;1.30;;
12675;SDS011;63820;65.654;21.944;2022-10-31T01:17:00;3.17;;;1.30;;
12675;SDS011;63820;65.654;21.944;2022-10-31T01:19:44;2.13;;;1.17;;
12675;SDS011;63820;65.654;21.944;2022-10-31T01:22:29;5.07;;;1.23;;
12675;SDS011;63820;65.654;21.944;2022-10-31T01:25:13;3.10;;;1.23;;
12675;SDS011;63820;65.654;21.944;2022-10-31T01:27:57;3.03;;;1.10;;
12675;SDS011;63820;65.654;21.944;2022-10-31T01:30:41;4.73;;;1.00;;
12675;SDS011;63820;65.654;21.944;2022-10-31T01:33:25;2.67;;;1.10;;
12675;SDS011;63820;65.654;21.944;2022-10-31T01:36:28;6.37;;;1.13;;
12675;SDS011;63820;65.654;21.944;2022-10-31T01:39:22;2.20;;;0.90;;
12675;SDS011;63820;65.654;21.944;2022-10-31T01:42:06;2.37;;;1.00;;
12675;SDS011;63820;65.654;21.944;2022-10-31T01:44:52;2.87;;;1.20;;
12675;SDS011;63820;65.654;21.944;2022-10-31T01:47:43;3.43;;;1.10;;
12675;SDS011;63820;65.654;21.944;2022-10-31T01:50:31;2.50;;;1.10;;
12675;SDS011;63820;65.654;21.944;2022-10-31T01:53:19;1.97;;;1.20;;
12675;SDS011;63820;65.654;21.944;2022-10-31T01:56:04;1.80;;;1.20;;
12675;SDS011;63820;65.654;21.944;2022-10-31T01:58:49;1.97;;;0.97;;
12675;SDS011;63820;65.654;21.944;2022-10-31T02:01:34;2.10;;;1.50;;
12675;SDS011;63820;65.654;21.944;2022-10-31T02:04:20;2.33;;;1.30;;
12675;SDS011;63820;65.654;21.944;2022-10-31T02:07:08;2.97;;;1.23;;
12675;SDS011;63820;65.654;21.944;2022-10-31T02:09:57;2.97;;;1.10;;
12675;SDS011;63820;65.654;21.944;2022-10-31T02:12:43;2.27;;;0.90;;
12675;SDS011;63820;65.654;21.944;2022-10-31T02:15:28;4.77;;;2.00;;
12675;SDS011;63820;65.654;21.944;2022-10-31T02:18:14;5.03;;;1.23;;
12675;SDS011;63820;65.654;21.944;2022-10-31T02:30:24;2.70;;;1.53;;
12675;SDS011;63820;65.654;21.944;2022-10-31T02:33:23;2.53;;;1.30;;
12675;SDS011;63820;65.654;21.944;2022-10-31T02:36:22;3.10;;;1.23;;
12675;SDS011;63820;65.654;21.944;2022-10-31T02:45:09;4.57;;;1.23;;
12675;SDS011;63820;65.654;21.944;2022-10-31T02:48:06;2.90;;;1.37;;
12675;SDS011;63820;65.654;21.944;2022-10-31T02:50:58;3.93;;;1.50;;
12675;SDS011;63820;65.654;21.944;2022-10-31T02:53:44;3.13;;;1.40;;
12675;SDS011;63820;65.654;21.944;2022-10-31T02:56:28;6.37;;;1.43;;
12675;SDS011;63820;65.654;21.944;2022-10-31T02:59:12;4.70;;;1.60;;
12675;SDS011;63820;65.654;21.944;2022-10-31T03:02:04;3.70;;;1.90;;
12675;SDS011;63820;65.654;21.944;2022-10-31T03:10:56;2.90;;;1.43;;
12675;SDS011;63820;65.654;21.944;2022-10-31T03:16:42;2.83;;;1.57;;
12675;SDS011;63820;65.654;21.944;2022-10-31T03:19:33;3.30;;;1.43;;
12675;SDS011;63820;65.654;21.944;2022-10-31T03:22:25;3.73;;;1.40;;
12675;SDS011;63820;65.654;21.944;2022-10-31T03:25:13;2.70;;;1.50;;
12675;SDS011;63820;65.654;21.944;2022-10-31T03:27:57;3.03;;;1.60;;
12675;SDS011;63820;65.654;21.944;2022-10-31T03:30:45;4.37;;;1.50;;
12675;SDS011;63820;65.654;21.944;2022-10-31T03:33:32;6.13;;;2.27;;
12675;SDS011;63820;65.654;21.944;2022-10-31T03:36:21;3.43;;;1.60;;
12675;SDS011;63820;65.654;21.944;2022-10-31T03:39:07;2.93;;;1.40;;
12675;SDS011;63820;65.654;21.944;2022-10-31T03:41:55;3.40;;;1.57;;
12675;SDS011;63820;65.654;21.944;2022-10-31T03:44:46;3.07;;;1.50;;
12675;SDS011;63820;65.654;21.944;2022-10-31T03:47:37;4.87;;;1.50;;
12675;SDS011;63820;65.654;21.944;2022-10-31T03:50:22;3.73;;;1.50;;
12675;SDS011;63820;65.654;21.944;2022-10-31T03:53:29;7.03;;;1.80;;
12675;SDS011;63820;65.654;21.944;2022-10-31T03:56:33;5.53;;;1.60;;
12675;SDS011;63820;65.654;21.944;2022-10-31T03:59:19;6.07;;;1.40;;
12675;SDS011;63820;65.654;21.944;2022-10-31T04:02:13;3.93;;;1.47;;
12675;SDS011;63820;65.654;21.944;2022-10-31T04:05:00;5.97;;;1.67;;
12675;SDS011;63820;65.654;21.944;2022-10-31T04:07:45;5.23;;;1.60;;
12675;SDS011;63820;65.654;21.944;2022-10-31T04:10:34;4.50;;;1.37;;
12675;SDS011;63820;65.654;21.944;2022-10-31T04:13:23;4.17;;;1.70;;
12675;SDS011;63820;65.654;21.944;2022-10-31T04:16:10;4.27;;;1.27;;
12675;SDS011;63820;65.654;21.944;2022-10-31T04:18:56;3.60;;;1.47;;
12675;SDS011;63820;65.654;21.944;2022-10-31T04:21:41;4.93;;;1.40;;
12675;SDS011;63820;65.654;21.944;2022-10-31T04:24:28;5.13;;;1.40;;
12675;SDS011;63820;65.654;21.944;2022-10-31T04:27:12;3.47;;;1.37;;
12675;SDS011;63820;65.654;21.944;2022-10-31T04:29:56;2.60;;;1.20;;
12675;SDS011;63820;65.654;21.944;2022-10-31T04:32:40;4.43;;;1.17;;
12675;SDS011;63820;65.654;21.944;2022-10-31T04:35:24;5.70;;;1.30;;
12675;SDS011;63820;65.654;21.944;2022-10-31T04:38:08;3.33;;;1.40;;
12675;SDS011;63820;65.654;21.944;2022-10-31T04:40:52;3.97;;;1.30;;
12675;SDS011;63820;65.654;21.944;2022-10-31T04:43:36;2.50;;;1.53;;
12675;SDS011;63820;65.654;21.944;2022-10-31T04:46:20;3.50;;;1.40;;
12675;SDS011;63820;65.654;21.944;2022-10-31T04:49:04;3.07;;;1.57;;
12675;SDS011;63820;65.654;21.944;2022-10-31T04:51:48;6.47;;;1.70;;
12675;SDS011;63820;65.654;21.944;2022-10-31T04:54:32;4.07;;;1.73;;
12675;SDS011;63820;65.654;21.944;2022-10-31T04:57:16;3.70;;;1.90;;
12675;SDS011;63820;65.654;21.944;2022-10-31T05:00:00;9.67;;;4.60;;
12675;SDS011;63820;65.654;21.944;2022-10-31T05:02:44;5.13;;;2.93;;
12675;SDS011;63820;65.654;21.944;2022-10-31T05:05:30;5.90;;;2.53;;
12675;SDS011;63820;65.654;21.944;2022-10-31T05:08:15;7.20;;;2.27;;
12675;SDS011;63820;65.654;21.944;2022-10-31T05:11:00;11.73;;;2.53;;
12675;SDS011;63820;65.654;21.944;2022-10-31T05:13:45;5.27;;;2.00;;
12675;SDS011;63820;65.654;21.944;2022-10-31T05:16:29;7.10;;;1.63;;
12675;SDS011;63820;65.654;21.944;2022-10-31T05:19:13;5.93;;;1.43;;
12675;SDS011;63820;65.654;21.944;2022-10-31T05:21:57;6.63;;;1.40;;
12675;SDS011;63820;65.654;21.944;2022-10-31T05:24:41;4.97;;;1.30;;
12675;SDS011;63820;65.654;21.944;2022-10-31T05:27:25;4.27;;;1.20;;
12675;SDS011;63820;65.654;21.944;2022-10-31T05:30:10;5.43;;;1.63;;
12675;SDS011;63820;65.654;21.944;2022-10-31T05:32:56;3.87;;;1.63;;
12675;SDS011;63820;65.654;21.944;2022-10-31T05:35:40;5.80;;;1.40;;
12675;SDS011;63820;65.654;21.944;2022-10-31T05:38:24;8.50;;;1.80;;
12675;SDS011;63820;65.654;21.944;2022-10-31T05:41:08;7.33;;;2.73;;
12675;SDS011;63820;65.654;21.944;2022-10-31T05:43:53;10.23;;;2.10;;
12675;SDS011;63820;65.654;21.944;2022-10-31T05:46:37;7.03;;;1.40;;
12675;SDS011;63820;65.654;21.944;2022-10-31T05:49:21;4.23;;;1.87;;
12675;SDS011;63820;65.654;21.944;2022-10-31T05:52:06;7.53;;;1.80;;
12675;SDS011;63820;65.654;21.944;2022-10-31T05:54:50;7.47;;;1.47;;
12675;SDS011;63820;65.654;21.944;2022-10-31T05:57:34;1.80;;;1.40;;
12675;SDS011;63820;65.654;21.944;2022-10-31T06:00:18;7.17;;;1.93;;
12675;SDS011;63820;65.654;21.944;2022-10-31T06:03:03;4.53;;;1.70;;
12675;SDS011;63820;65.654;21.944;2022-10-31T06:05:49;8.87;;;1.80;;
12675;SDS011;63820;65.654;21.944;2022-10-31T06:08:32;6.23;;;1.80;;
12675;SDS011;63820;65.654;21.944;2022-10-31T06:11:17;7.50;;;1.67;;
12675;SDS011;63820;65.654;21.944;2022-10-31T06:14:01;9.87;;;2.17;;
12675;SDS011;63820;65.654;21.944;2022-10-31T06:16:45;12.67;;;2.27;;
12675;SDS011;63820;65.654;21.944;2022-10-31T06:19:29;9.03;;;2.73;;
12675;SDS011;63820;65.654;21.944;2022-10-31T06:22:13;8.70;;;2.07;;
12675;SDS011;63820;65.654;21.944;2022-10-31T06:24:57;10.27;;;2.20;;
12675;SDS011;63820;65.654;21.944;2022-10-31T06:27:41;13.47;;;2.80;;
12675;SDS011;63820;65.654;21.944;2022-10-31T06:30:25;9.50;;;2.07;;
12675;SDS011;63820;65.654;21.944;2022-10-31T06:33:09;9.53;;;2.30;;
12675;SDS011;63820;65.654;21.944;2022-10-31T06:35:53;9.37;;;2.33;;
12675;SDS011;63820;65.654;21.944;2022-10-31T06:38:37;12.27;;;2.30;;
12675;SDS011;63820;65.654;21.944;2022-10-31T06:41:21;12.77;;;2.30;;
12675;SDS011;63820;65.654;21.944;2022-10-31T06:44:06;8.47;;;2.20;;
12675;SDS011;63820;65.654;21.944;2022-10-31T06:46:50;17.90;;;2.57;;
12675;SDS011;63820;65.654;21.944;2022-10-31T06:49:34;14.57;;;2.80;;
12675;SDS011;63820;65.654;21.944;2022-10-31T06:52:18;10.07;;;3.13;;
12675;SDS011;63820;65.654;21.944;2022-10-31T06:55:02;10.37;;;2.70;;
12675;SDS011;63820;65.654;21.944;2022-10-31T06:57:52;12.40;;;2.50;;
12675;SDS011;63820;65.654;21.944;2022-10-31T07:00:37;6.33;;;2.13;;
12675;SDS011;63820;65.654;21.944;2022-10-31T07:03:21;6.07;;;1.70;;
12675;SDS011;63820;65.654;21.944;2022-10-31T07:06:05;10.57;;;2.23;;
12675;SDS011;63820;65.654;21.944;2022-10-31T07:08:49;8.63;;;2.00;;
12675;SDS011;63820;65.654;21.944;2022-10-31T07:11:33;9.57;;;1.67;;
12675;SDS011;63820;65.654;21.944;2022-10-31T07:14:17;7.07;;;1.87;;
12675;SDS011;63820;65.654;21.944;2022-10-31T07:17:01;10.97;;;2.00;;
12675;SDS011;63820;65.654;21.944;2022-10-31T07:19:45;7.63;;;2.23;;
12675;SDS011;63820;65.654;21.944;2022-10-31T07:22:36;9.17;;;1.97;;
12675;SDS011;63820;65.654;21.944;2022-10-31T07:25:21;9.53;;;3.03;;
12675;SDS011;63820;65.654;21.944;2022-10-31T07:28:05;14.00;;;2.73;;
12675;SDS011;63820;65.654;21.944;2022-10-31T07:30:54;18.90;;;2.50;;
12675;SDS011;63820;65.654;21.944;2022-10-31T07:33:40;12.13;;;2.50;;
12675;SDS011;63820;65.654;21.944;2022-10-31T07:36:24;16.70;;;2.83;;
12675;SDS011;63820;65.654;21.944;2022-10-31T07:39:08;24.27;;;3.33;;
12675;SDS011;63820;65.654;21.944;2022-10-31T07:41:52;14.30;;;3.00;;
12675;SDS011;63820;65.654;21.944;2022-10-31T07:44:36;16.67;;;2.90;;
12675;SDS011;63820;65.654;21.944;2022-10-31T07:47:20;32.30;;;7.80;;
12675;SDS011;63820;65.654;21.944;2022-10-31T07:50:04;22.33;;;3.97;;
12675;SDS011;63820;65.654;21.944;2022-10-31T07:52:57;19.87;;;2.97;;
12675;SDS011;63820;65.654;21.944;2022-10-31T07:55:44;21.20;;;3.63;;
12675;SDS011;63820;65.654;21.944;2022-10-31T07:58:29;23.13;;;3.67;;
12675;SDS011;63820;65.654;21.944;2022-10-31T08:01:13;41.40;;;4.30;;
12675;SDS011;63820;65.654;21.944;2022-10-31T08:03:57;17.03;;;3.80;;
12675;SDS011;63820;65.654;21.944;2022-10-31T08:06:41;15.70;;;3.17;;
12675;SDS011;63820;65.654;21.944;2022-10-31T08:09:25;15.00;;;2.87;;
12675;SDS011;63820;65.654;21.944;2022-10-31T08:12:09;14.53;;;2.80;;
12675;SDS011;63820;65.654;21.944;2022-10-31T08:14:53;18.17;;;2.53;;
12675;SDS011;63820;65.654;21.944;2022-10-31T08:17:37;14.23;;;3.30;;
12675;SDS011;63820;65.654;21.944;2022-10-31T08:20:22;12.80;;;3.47;;
12675;SDS011;63820;65.654;21.944;2022-10-31T08:23:06;19.27;;;2.80;;
12675;SDS011;63820;65.654;21.944;2022-10-31T08:25:52;15.07;;;2.53;;
12675;SDS011;63820;65.654;21.944;2022-10-31T08:28:36;17.43;;;3.43;;
12675;SDS011;63820;65.654;21.944;2022-10-31T08:31:20;15.77;;;3.43;;
12675;SDS011;63820;65.654;21.944;2022-10-31T08:34:05;13.27;;;2.23;;
12675;SDS011;63820;65.654;21.944;2022-10-31T08:36:49;9.73;;;2.33;;
12675;SDS011;63820;65.654;21.944;2022-10-31T08:39:33;9.60;;;2.37;;
12675;SDS011;63820;65.654;21.944;2022-10-31T08:42:17;8.53;;;2.10;;
12675;SDS011;63820;65.654;21.944;2022-10-31T08:45:01;5.43;;;1.90;;
12675;SDS011;63820;65.654;21.944;2022-10-31T08:47:45;7.53;;;1.60;;
12675;SDS011;63820;65.654;21.944;2022-10-31T08:50:30;8.40;;;1.97;;
12675;SDS011;63820;65.654;21.944;2022-10-31T08:53:16;4.07;;;1.60;;
12675;SDS011;63820;65.654;21.944;2022-10-31T08:56:02;3.73;;;1.70;;
12675;SDS011;63820;65.654;21.944;2022-10-31T08:58:46;5.00;;;1.80;;
12675;SDS011;63820;65.654;21.944;2022-10-31T09:01:30;2.97;;;1.43;;
12675;SDS011;63820;65.654;21.944;2022-10-31T09:04:14;5.90;;;2.00;;
12675;SDS011;63820;65.654;21.944;2022-10-31T09:06:58;5.43;;;1.93;;
12675;SDS011;63820;65.654;21.944;2022-10-31T09:09:42;4.10;;;1.33;;
12675;SDS011;63820;65.654;21.944;2022-10-31T09:12:26;4.73;;;1.53;;
12675;SDS011;63820;65.654;21.944;2022-10-31T09:15:10;4.10;;;1.47;;
12675;SDS011;63820;65.654;21.944;2022-10-31T09:17:54;4.70;;;1.40;;
12675;SDS011;63820;65.654;21.944;2022-10-31T09:20:38;3.15;;;1.40;;
12675;SDS011;63820;65.654;21.944;2022-10-31T09:23:24;4.13;;;1.00;;
12675;SDS011;63820;65.654;21.944;2022-10-31T09:26:08;2.05;;;1.08;;
12675;SDS011;63820;65.654;21.944;2022-10-31T09:28:52;2.55;;;1.10;;
12675;SDS011;63820;65.654;21.944;2022-10-31T09:31:36;2.50;;;1.20;;
12675;SDS011;63820;65.654;21.944;2022-10-31T09:34:20;2.95;;;1.00;;
12675;SDS011;63820;65.654;21.944;2022-10-31T09:37:04;3.08;;;1.05;;
12675;SDS011;63820;65.654;21.944;2022-10-31T09:39:48;1.80;;;1.10;;
12675;SDS011;63820;65.654;21.944;2022-10-31T09:42:45;1.73;;;0.90;;
12675;SDS011;63820;65.654;21.944;2022-10-31T09:45:44;1.95;;;0.90;;
12675;SDS011;63820;65.654;21.944;2022-10-31T09:51:51;2.67;;;0.90;;
12675;SDS011;63820;65.654;21.944;2022-10-31T09:57:35;1.48;;;0.60;;
12675;SDS011;63820;65.654;21.944;2022-10-31T10:00:21;1.98;;;0.82;;
12675;SDS011;63820;65.654;21.944;2022-10-31T10:06:28;2.10;;;0.70;;
12675;SDS011;63820;65.654;21.944;2022-10-31T10:09:16;3.00;;;0.90;;
12675;SDS011;63820;65.654;21.944;2022-10-31T10:18:49;1.65;;;0.80;;
12675;SDS011;63820;65.654;21.944;2022-10-31T10:33:55;1.50;;;0.70;;
12675;SDS011;63820;65.654;21.944;2022-10-31T10:36:44;0.93;;;0.50;;
12675;SDS011;63820;65.654;21.944;2022-10-31T10:39:32;3.03;;;0.77;;
12675;SDS011;63820;65.654;21.944;2022-10-31T10:42:25;3.07;;;0.70;;
12675;SDS011;63820;65.654;21.944;2022-10-31T10:45:29;2.47;;;0.70;;
12675;SDS011;63820;65.654;21.944;2022-10-31T10:48:43;1.43;;;0.50;;
12675;SDS011;63820;65.654;21.944;2022-10-31T10:51:50;2.00;;;0.80;;
12675;SDS011;63820;65.654;21.944;2022-10-31T10:57:32;1.70;;;0.80;;
12675;SDS011;63820;65.654;21.944;2022-10-31T11:00:43;2.10;;;0.80;;
12675;SDS011;63820;65.654;21.944;2022-10-31T11:03:30;2.93;;;0.70;;
12675;SDS011;63820;65.654;21.944;2022-10-31T11:06:22;1.50;;;0.70;;
12675;SDS011;63820;65.654;21.944;2022-10-31T11:09:09;4.40;;;0.80;;
12675;SDS011;63820;65.654;21.944;2022-10-31T11:11:56;2.97;;;0.73;;
12675;SDS011;63820;65.654;21.944;2022-10-31T11:17:36;2.80;;;0.77;;
12675;SDS011;63820;65.654;21.944;2022-10-31T11:20:25;2.63;;;0.80;;
12675;SDS011;63820;65.654;21.944;2022-10-31T11:23:16;2.13;;;0.80;;
12675;SDS011;63820;65.654;21.944;2022-10-31T11:26:03;1.53;;;0.60;;
12675;SDS011;63820;65.654;21.944;2022-10-31T11:28:59;1.57;;;0.60;;
12675;SDS011;63820;65.654;21.944;2022-10-31T11:31:44;2.47;;;0.97;;
12675;SDS011;63820;65.654;21.944;2022-10-31T11:34:31;1.67;;;0.73;;
12675;SDS011;63820;65.654;21.944;2022-10-31T11:37:20;1.53;;;0.63;;
12675;SDS011;63820;65.654;21.944;2022-10-31T11:40:14;2.13;;;0.87;;
12675;SDS011;63820;65.654;21.944;2022-10-31T11:43:01;1.40;;;0.80;;
12675;SDS011;63820;65.654;21.944;2022-10-31T11:45:44;1.73;;;0.93;;
12675;SDS011;63820;65.654;21.944;2022-10-31T11:48:29;2.20;;;0.93;;
12675;SDS011;63820;65.654;21.944;2022-10-31T11:51:19;6.00;;;0.90;;
12675;SDS011;63820;65.654;21.944;2022-10-31T11:54:19;2.40;;;0.93;;
12675;SDS011;63820;65.654;21.944;2022-10-31T12:08:56;4.90;;;1.10;;
12675;SDS011;63820;65.654;21.944;2022-10-31T12:11:43;3.77;;;0.90;;
12675;SDS011;63820;65.654;21.944;2022-10-31T12:15:02;5.53;;;1.00;;
12675;SDS011;63820;65.654;21.944;2022-10-31T12:18:17;2.70;;;0.80;;
12675;SDS011;63820;65.654;21.944;2022-10-31T12:57:35;2.53;;;0.70;;
12675;SDS011;63820;65.654;21.944;2022-10-31T13:00:23;2.03;;;0.90;;
12675;SDS011;63820;65.654;21.944;2022-10-31T13:03:21;3.87;;;0.97;;
12675;SDS011;63820;65.654;21.944;2022-10-31T13:06:17;2.73;;;0.80;;
12675;SDS011;63820;65.654;21.944;2022-10-31T13:09:06;2.77;;;1.00;;
12675;SDS011;63820;65.654;21.944;2022-10-31T13:11:58;4.97;;;1.30;;
12675;SDS011;63820;65.654;21.944;2022-10-31T13:14:52;5.57;;;0.90;;
12675;SDS011;63820;65.654;21.944;2022-10-31T13:17:42;4.10;;;1.00;;
12675;SDS011;63820;65.654;21.944;2022-10-31T13:20:32;2.93;;;1.00;;
12675;SDS011;63820;65.654;21.944;2022-10-31T13:23:22;2.30;;;0.77;;
12675;SDS011;63820;65.654;21.944;2022-10-31T13:26:13;3.13;;;1.20;;
12675;SDS011;63820;65.654;21.944;2022-10-31T13:32:09;2.90;;;1.20;;
12675;SDS011;63820;65.654;21.944;2022-10-31T13:34:55;5.97;;;1.37;;
12675;SDS011;63820;65.654;21.944;2022-10-31T13:37:43;4.60;;;1.20;;
12675;SDS011;63820;65.654;21.944;2022-10-31T13:46:46;4.67;;;1.50;;
12675;SDS011;63820;65.654;21.944;2022-10-31T13:52:16;2.13;;;1.50;;
12675;SDS011;63820;65.654;21.944;2022-10-31T13:55:19;2.87;;;1.50;;
12675;SDS011;63820;65.654;21.944;2022-10-31T13:58:27;6.33;;;2.17;;
12675;SDS011;63820;65.654;21.944;2022-10-31T14:01:15;4.17;;;1.57;;
12675;SDS011;63820;65.654;21.944;2022-10-31T14:10:19;3.50;;;1.63;;
12675;SDS011;63820;65.654;21.944;2022-10-31T14:12:50;4.43;;;1.50;;
12675;SDS011;63820;65.654;21.944;2022-10-31T14:15:34;4.83;;;1.70;;
12675;SDS011;63820;65.654;21.944;2022-10-31T14:18:22;2.43;;;1.60;;
12675;SDS011;63820;65.654;21.944;2022-10-31T14:30:13;6.00;;;1.70;;
12675;SDS011;63820;65.654;21.944;2022-10-31T14:33:00;4.80;;;1.47;;
12675;SDS011;63820;65.654;21.944;2022-10-31T14:35:57;4.67;;;1.63;;
12675;SDS011;63820;65.654;21.944;2022-10-31T14:41:49;3.93;;;1.97;;
12675;SDS011;63820;65.654;21.944;2022-10-31T14:50:55;2.97;;;2.00;;
12675;SDS011;63820;65.654;21.944;2022-10-31T14:53:44;4.60;;;1.80;;
12675;SDS011;63820;65.654;21.944;2022-10-31T14:56:35;7.03;;;2.20;;
12675;SDS011;63820;65.654;21.944;2022-10-31T14:59:27;4.73;;;1.63;;
12675;SDS011;63820;65.654;21.944;2022-10-31T15:05:09;5.60;;;1.83;;
12675;SDS011;63820;65.654;21.944;2022-10-31T15:07:55;6.30;;;2.20;;
12675;SDS011;63820;65.654;21.944;2022-10-31T15:10:44;6.53;;;2.40;;
12675;SDS011;63820;65.654;21.944;2022-10-31T15:13:29;5.10;;;2.10;;
12675;SDS011;63820;65.654;21.944;2022-10-31T15:16:14;5.37;;;2.37;;
12675;SDS011;63820;65.654;21.944;2022-10-31T15:19:05;7.80;;;2.57;;
12675;SDS011;63820;65.654;21.944;2022-10-31T15:21:51;7.63;;;2.60;;
12675;SDS011;63820;65.654;21.944;2022-10-31T15:24:38;6.20;;;2.60;;
12675;SDS011;63820;65.654;21.944;2022-10-31T15:27:23;7.07;;;3.03;;
12675;SDS011;63820;65.654;21.944;2022-10-31T15:33:14;5.50;;;2.30;;
12675;SDS011;63820;65.654;21.944;2022-10-31T15:36:02;3.20;;;2.33;;
12675;SDS011;63820;65.654;21.944;2022-10-31T15:38:48;5.63;;;2.20;;
12675;SDS011;63820;65.654;21.944;2022-10-31T15:44:31;4.50;;;2.70;;
12675;SDS011;63820;65.654;21.944;2022-10-31T15:47:19;6.63;;;2.80;;
12675;SDS011;63820;65.654;21.944;2022-10-31T15:50:06;11.80;;;5.03;;
12675;SDS011;63820;65.654;21.944;2022-10-31T15:53:05;10.73;;;4.00;;
12675;SDS011;63820;65.654;21.944;2022-10-31T15:55:59;5.80;;;3.13;;
12675;SDS011;63820;65.654;21.944;2022-10-31T15:58:46;10.53;;;5.80;;
12675;SDS011;63820;65.654;21.944;2022-10-31T16:01:32;16.60;;;6.67;;
12675;SDS011;63820;65.654;21.944;2022-10-31T16:04:22;11.00;;;5.43;;
12675;SDS011;63820;65.654;21.944;2022-10-31T16:07:14;6.03;;;2.63;;
12675;SDS011;63820;65.654;21.944;2022-10-31T16:10:01;7.50;;;3.70;;
12675;SDS011;63820;65.654;21.944;2022-10-31T16:12:47;10.23;;;2.90;;
12675;SDS011;63820;65.654;21.944;2022-10-31T16:15:31;8.47;;;3.10;;
12675;SDS011;63820;65.654;21.944;2022-10-31T16:18:17;7.03;;;2.60;;
12675;SDS011;63820;65.654;21.944;2022-10-31T16:21:01;4.50;;;2.77;;
12675;SDS011;63820;65.654;21.944;2022-10-31T16:23:46;5.63;;;2.70;;
12675;SDS011;63820;65.654;21.944;2022-10-31T16:26:33;7.10;;;2.63;;
12675;SDS011;63820;65.654;21.944;2022-10-31T16:29:25;31.97;;;18.40;;
12675;SDS011;63820;65.654;21.944;2022-10-31T16:32:28;12.40;;;7.67;;
12675;SDS011;63820;65.654;21.944;2022-10-31T16:35:17;28.53;;;14.73;;
12675;SDS011;63820;65.654;21.944;2022-10-31T16:38:03;29.90;;;14.47;;
12675;SDS011;63820;65.654;21.944;2022-10-31T16:40:48;15.80;;;8.60;;
12675;SDS011;63820;65.654;21.944;2022-10-31T16:43:34;11.87;;;6.07;;
12675;SDS011;63820;65.654;21.944;2022-10-31T16:46:20;12.57;;;4.93;;
12675;SDS011;63820;65.654;21.944;2022-10-31T16:49:10;9.57;;;5.10;;
12675;SDS011;63820;65.654;21.944;2022-10-31T16:51:55;20.07;;;9.13;;
12675;SDS011;63820;65.654;21.944;2022-10-31T16:54:39;17.23;;;10.13;;
12675;SDS011;63820;65.654;21.944;2022-10-31T16:57:25;11.03;;;5.37;;
12675;SDS011;63820;65.654;21.944;2022-10-31T17:00:14;13.93;;;9.33;;
12675;SDS011;63820;65.654;21.944;2022-10-31T17:03:02;8.03;;;4.33;;
12675;SDS011;63820;65.654;21.944;2022-10-31T17:05:48;10.10;;;5.50;;
12675;SDS011;63820;65.654;21.944;2022-10-31T17:08:32;15.63;;;7.53;;
12675;SDS011;63820;65.654;21.944;2022-10-31T17:11:18;14.67;;;7.63;;
12675;SDS011;63820;65.654;21.944;2022-10-31T17:14:03;10.53;;;6.33;;
12675;SDS011;63820;65.654;21.944;2022-10-31T17:16:48;13.03;;;4.40;;
12675;SDS011;63820;65.654;21.944;2022-10-31T17:19:32;10.03;;;2.70;;
12675;SDS011;63820;65.654;21.944;2022-10-31T17:22:17;5.20;;;2.10;;
12675;SDS011;63820;65.654;21.944;2022-10-31T17:25:02;6.53;;;2.60;;
12675;SDS011;63820;65.654;21.944;2022-10-31T17:27:45;15.47;;;8.20;;
12675;SDS011;63820;65.654;21.944;2022-10-31T17:30:30;9.93;;;2.90;;
12675;SDS011;63820;65.654;21.944;2022-10-31T17:33:15;9.07;;;3.07;;
12675;SDS011;63820;65.654;21.944;2022-10-31T17:36:01;16.10;;;7.00;;
12675;SDS011;63820;65.654;21.944;2022-10-31T17:38:46;12.40;;;3.93;;
12675;SDS011;63820;65.654;21.944;2022-10-31T17:41:30;9.73;;;4.23;;
12675;SDS011;63820;65.654;21.944;2022-10-31T17:44:14;11.93;;;4.60;;
12675;SDS011;63820;65.654;21.944;2022-10-31T17:46:58;9.43;;;5.50;;
12675;SDS011;63820;65.654;21.944;2022-10-31T17:49:42;17.47;;;11.27;;
12675;SDS011;63820;65.654;21.944;2022-10-31T17:52:27;14.27;;;5.87;;
12675;SDS011;63820;65.654;21.944;2022-10-31T17:56:26;9.60;;;6.27;;
12675;SDS011;63820;65.654;21.944;2022-10-31T17:59:10;22.20;;;14.87;;
12675;SDS011;63820;65.654;21.944;2022-10-31T18:01:55;9.27;;;4.50;;
12675;SDS011;63820;65.654;21.944;2022-10-31T18:04:39;12.83;;;8.53;;
12675;SDS011;63820;65.654;21.944;2022-10-31T18:07:24;11.43;;;5.07;;
12675;SDS011;63820;65.654;21.944;2022-10-31T18:10:08;29.63;;;17.37;;
12675;SDS011;63820;65.654;21.944;2022-10-31T18:12:52;15.37;;;8.47;;
12675;SDS011;63820;65.654;21.944;2022-10-31T18:15:39;22.90;;;13.63;;
12675;SDS011;63820;65.654;21.944;2022-10-31T18:20:14;6.03;;;3.97;;
12675;SDS011;63820;65.654;21.944;2022-10-31T18:22:59;9.40;;;7.40;;
12675;SDS011;63820;65.654;21.944;2022-10-31T18:25:43;8.37;;;5.27;;
12675;SDS011;63820;65.654;21.944;2022-10-31T18:28:27;10.20;;;4.70;;
12675;SDS011;63820;65.654;21.944;2022-10-31T18:31:11;9.63;;;4.40;;
12675;SDS011;63820;65.654;21.944;2022-10-31T18:33:55;5.00;;;3.03;;
12675;SDS011;63820;65.654;21.944;2022-10-31T18:36:40;5.20;;;2.73;;
12675;SDS011;63820;65.654;21.944;2022-10-31T18:39:24;6.60;;;3.13;;
12675;SDS011;63820;65.654;21.944;2022-10-31T18:42:08;13.63;;;8.40;;
12675;SDS011;63820;65.654;21.944;2022-10-31T18:44:52;17.70;;;11.33;;
12675;SDS011;63820;65.654;21.944;2022-10-31T18:47:36;6.93;;;3.90;;
12675;SDS011;63820;65.654;21.944;2022-10-31T18:50:20;11.77;;;9.50;;
12675;SDS011;63820;65.654;21.944;2022-10-31T18:53:04;4.83;;;2.87;;
12675;SDS011;63820;65.654;21.944;2022-10-31T18:55:48;5.70;;;1.80;;
12675;SDS011;63820;65.654;21.944;2022-10-31T18:58:33;3.00;;;2.07;;
12675;SDS011;63820;65.654;21.944;2022-10-31T19:01:18;8.53;;;4.97;;